Bei Facebook empfehlenBei Twitter postenGoogle plusPinterest

Das Wetter im Erzgebirge am 12.09.2016

Wetter und Klima am 12.09.2016 Holzhau im Erzgebirge (630m ü.NN)
Letzte gemessene Temperatur und Uhrzeit der Messung23:45:00 Uhr13.90 °C
Temperatur (Maximum / Höchstwert) und Uhrzeit der Messung16:30:00 Uhr29.30 °C
Temperatur (Minimum / Tiefstwert) und Uhrzeit der Messung06:45:0012.10 °C
Errechneter Absolutwert der Temperaturschwankungen zwischen Tmin und Tmax des Tages17.20 K
Errechnete Tagesmitteltemperatur19.43542 °C
Gesamt - Niederschlag des Tages (in flüssiger Form)0.00 Liter / m²
Luftdruck (Maximum / Höchstwert) und Zeitpunkt der Messung13:00:00 Uhr1018.40 hPa
Luftdruck (Minimum / Tiefstwert) und Zeitpunkt der Messung06:45:00 Uhr1017.40 hPa
Errechneter Absolutwert der Luftdruckschwankungen des Tages1.00 hPa
Höchste gemessene Windgeschwindigkeit und Uhrzeit der Messung23:45:00 Uhr0.00 km/h
Errechnete Windhäufigkeit in Relation zu den Messwerten des Tages0.00000 %
Niedrigste Windkühle (Windchill) und Zeitpunkt der Messung06:45:00 Uhr12.10 °C
Taupunkt (Maximum / Höchstwert) und Uhrzeit der Messung10:30:00 Uhr20.50 °C
Taupunkt (Minimum / Tiefstwert) und Uhrzeit der Messung06:45:0010.80 °C
Anzahl der automatisch eingelesenen Messwerte 96

Detaillierte Wetter- und Klima- Messwerte für den 12.09.2016 in Holzhau im Erzgebirge (630m ü.NN)
ZeitTemperaturLuftdruckRel. LuftfeuchteWindWindrichtungWindchillTaupunktNiederschlag l/m²
23:45:0013.90 °C1017.70 hPa86.00 %11.60 °C 
23:30:0014.10 °C1017.70 hPa86.00 %11.80 °C 
23:15:0014.30 °C1017.80 hPa86.00 %12.00 °C 
23:00:0014.40 °C1017.80 hPa85.00 %11.90 °C 
22:45:0014.60 °C1017.70 hPa84.00 %11.90 °C 
22:30:0014.80 °C1017.70 hPa84.00 %12.10 °C 
22:15:0014.90 °C1017.70 hPa83.00 %12.00 °C 
22:00:0015.10 °C1017.60 hPa82.00 %12.10 °C 
21:45:0015.40 °C1017.50 hPa82.00 %12.30 °C 
21:30:0015.80 °C1017.60 hPa80.00 %12.40 °C 
21:15:0015.90 °C1017.60 hPa80.00 %12.50 °C 
21:00:0016.30 °C1017.60 hPa78.00 %12.50 °C 
20:45:0016.60 °C1017.70 hPa77.00 %12.60 °C 
20:30:0017.00 °C1017.70 hPa76.00 %12.70 °C 
20:15:0017.30 °C1017.70 hPa74.00 %12.60 °C 
20:00:0017.90 °C1017.60 hPa71.00 %12.60 °C 
19:45:0018.60 °C1017.50 hPa69.00 %12.80 °C 
19:30:0019.50 °C1017.60 hPa66.00 %13.00 °C 
19:15:0020.80 °C1017.50 hPa64.00 %13.70 °C 
19:00:0022.20 °C1017.60 hPa61.00 %14.30 °C 
18:45:0023.80 °C1017.60 hPa58.00 %15.00 °C 
18:30:0025.30 °C1017.60 hPa54.00 %15.30 °C 
18:15:0026.50 °C1017.60 hPa51.00 %15.50 °C 
18:00:0027.40 °C1017.70 hPa48.00 %15.40 °C 
17:45:0028.00 °C1017.70 hPa47.00 %15.60 °C 
17:30:0028.10 °C1017.60 hPa46.00 %15.40 °C 
17:15:0028.40 °C1017.70 hPa46.00 %15.70 °C 
17:00:0028.60 °C1017.70 hPa46.00 %15.80 °C 
16:45:0028.70 °C1017.70 hPa46.00 %15.90 °C 
16:30:0029.30 °C1017.80 hPa46.00 %16.50 °C 
16:15:0029.30 °C1017.60 hPa46.00 %16.50 °C 
16:00:0028.90 °C1017.70 hPa46.00 %16.10 °C 
15:45:0028.90 °C1018.00 hPa45.00 %15.80 °C 
15:30:0028.90 °C1017.90 hPa46.00 %16.10 °C 
15:15:0029.30 °C1017.90 hPa46.00 %16.50 °C 
15:00:0028.80 °C1017.90 hPa47.00 %16.40 °C 
14:45:0028.90 °C1017.90 hPa46.00 %16.10 °C 
14:30:0028.60 °C1018.20 hPa46.00 %15.80 °C 
14:15:0028.50 °C1018.20 hPa46.00 %15.80 °C 
14:00:0028.60 °C1018.10 hPa47.00 %16.20 °C 
13:45:0028.50 °C1018.20 hPa47.00 %16.10 °C 
13:30:0028.40 °C1018.30 hPa48.00 %16.30 °C 
13:15:0028.40 °C1018.20 hPa48.00 %16.30 °C 
13:00:0028.30 °C1018.40 hPa48.00 %16.20 °C 
12:45:0028.10 °C1018.20 hPa49.00 %16.40 °C 
12:30:0028.10 °C1018.20 hPa49.00 %16.40 °C 
12:15:0028.10 °C1018.20 hPa50.00 %16.70 °C 
12:00:0028.30 °C1018.00 hPa53.00 %17.80 °C 
11:45:0027.90 °C1018.10 hPa56.00 %18.30 °C 
11:30:0027.40 °C1018.10 hPa57.00 %18.10 °C 
11:15:0026.80 °C1018.10 hPa61.00 %18.60 °C 
11:00:0026.30 °C1018.00 hPa64.00 %18.90 °C 
10:45:0025.80 °C1017.90 hPa72.00 %20.40 °C 
10:30:0024.60 °C1017.80 hPa78.00 %20.50 °C 
10:15:0023.50 °C1017.80 hPa83.00 %20.40 °C 
10:00:0022.20 °C1017.80 hPa87.00 %19.90 °C 
09:45:0021.00 °C1017.80 hPa89.00 %19.10 °C 
09:30:0019.80 °C1017.70 hPa91.00 %18.30 °C 
09:15:0018.40 °C1017.60 hPa91.00 %16.90 °C 
09:00:0017.20 °C1017.70 hPa92.00 %15.90 °C 
08:45:0016.10 °C1017.60 hPa93.00 %15.00 °C 
08:30:0015.20 °C1017.60 hPa93.00 %14.10 °C 
08:15:0014.40 °C1017.50 hPa93.00 %13.30 °C 
08:00:0013.60 °C1017.60 hPa93.00 %12.50 °C 
07:45:0012.60 °C1017.50 hPa93.00 %11.50 °C 
07:30:0012.30 °C1017.50 hPa93.00 %11.20 °C 
07:15:0012.40 °C1017.60 hPa93.00 %11.30 °C 
07:00:0012.30 °C1017.50 hPa93.00 %11.20 °C 
06:45:0012.10 °C1017.40 hPa92.00 %10.80 °C 
06:30:0012.10 °C1017.50 hPa92.00 %10.80 °C 
06:15:0012.40 °C1017.40 hPa92.00 %11.10 °C 
06:00:0012.50 °C1017.60 hPa92.00 %11.20 °C 
05:45:0012.50 °C1017.60 hPa92.00 %11.20 °C 
05:30:0012.40 °C1017.80 hPa92.00 %11.10 °C 
05:15:0012.50 °C1017.80 hPa92.00 %11.20 °C 
05:00:0012.50 °C1017.70 hPa92.00 %11.20 °C 
04:45:0012.40 °C1017.90 hPa92.00 %11.10 °C 
04:30:0012.60 °C1017.70 hPa92.00 %11.30 °C 
04:15:0012.60 °C1017.70 hPa92.00 %11.30 °C 
04:00:0012.60 °C1017.90 hPa91.00 %11.20 °C 
03:45:0012.60 °C1017.80 hPa91.00 %11.20 °C 
03:30:0012.70 °C1017.90 hPa91.00 %11.30 °C 
03:15:0012.80 °C1017.80 hPa91.00 %11.40 °C 
03:00:0012.80 °C1017.90 hPa91.00 %11.40 °C 
02:45:0012.80 °C1017.90 hPa91.00 %11.40 °C 
02:30:0012.60 °C1017.90 hPa90.00 %11.00 °C 
02:15:0012.90 °C1017.90 hPa90.00 %11.30 °C 
02:00:0012.90 °C1017.80 hPa90.00 %11.30 °C 
01:45:0012.90 °C1018.00 hPa90.00 %11.30 °C 
01:30:0013.00 °C1017.90 hPa90.00 %11.40 °C 
01:15:0013.00 °C1017.90 hPa89.00 %11.20 °C 
01:00:0013.20 °C1017.90 hPa89.00 %11.40 °C 
00:45:0013.30 °C1017.90 hPa89.00 %11.50 °C 
00:30:0013.40 °C1017.90 hPa88.00 %11.50 °C 
00:15:0013.60 °C1017.90 hPa88.00 %11.70 °C 
00:00:0013.90 °C1018.00 hPa89.00 %12.10 °C 

Permanenter Link zu dieser Seite: Wetter im Erzgebirge am 12.09.2016
Performance-Info: Die Erstellung der Seite / Statistik(en) / Tabelle(n) erforderte 5 Datenbankserver-Abfrage(n) und dauerte 113 Millisekunden. (Dieser Messwert ist von der Gesamt-Auslastung des Servers abhängig.)
Erzgebirge - Wetter | Erzgebirge - Wetter (Mobilgeräte) | Komplette Klimadatenbank